createdAt,value
2022-12-29T00:01:56.433Z,2.30
2022-12-29T00:04:25.210Z,2.30
2022-12-29T00:06:55.341Z,2.20
2022-12-29T00:09:25.522Z,2.20
2022-12-29T00:11:54.408Z,2.20
2022-12-29T00:14:40.937Z,2.30
2022-12-29T00:17:10.145Z,2.30
2022-12-29T00:19:56.493Z,2.20
2022-12-29T00:22:42.960Z,2.20
2022-12-29T00:25:32.467Z,2.20
2022-12-29T00:28:18.867Z,2.30
2022-12-29T00:31:04.983Z,2.30
2022-12-29T00:33:53.130Z,2.30
2022-12-29T00:36:28.122Z,2.20
2022-12-29T00:39:20.205Z,2.20
2022-12-29T00:42:08.156Z,2.30
2022-12-29T00:44:36.960Z,2.30
2022-12-29T00:47:06.118Z,2.30
2022-12-29T00:49:34.392Z,2.30
2022-12-29T00:52:06.833Z,2.30
2022-12-29T00:54:38.949Z,2.30
2022-12-29T00:57:11.787Z,2.20
2022-12-29T00:59:41.929Z,2.30
2022-12-29T01:02:12.235Z,2.20
2022-12-29T01:04:41.340Z,2.20
2022-12-29T01:07:10.123Z,2.10
2022-12-29T01:09:56.479Z,2.20
2022-12-29T01:12:40.535Z,2.10
2022-12-29T01:15:12.644Z,2.10
2022-12-29T01:17:41.396Z,2.20
2022-12-29T01:20:11.874Z,2.20
2022-12-29T01:22:43.520Z,2.20
2022-12-29T01:25:12.347Z,2.10
2022-12-29T01:27:42.533Z,2.10
2022-12-29T01:30:12.592Z,2.10
2022-12-29T01:32:41.407Z,2.00
2022-12-29T01:35:11.857Z,2.00
2022-12-29T01:37:40.634Z,2.00
2022-12-29T01:40:10.969Z,2.00
2022-12-29T01:42:41.083Z,2.00
2022-12-29T01:45:14.232Z,2.00
2022-12-29T01:47:48.249Z,2.00
2022-12-29T01:50:24.729Z,2.00
2022-12-29T01:53:02.143Z,1.90
2022-12-29T01:55:39.016Z,1.90
2022-12-29T01:58:11.181Z,1.90
2022-12-29T02:00:40.538Z,1.90
2022-12-29T02:03:10.773Z,1.80
2022-12-29T02:05:47.622Z,1.80
2022-12-29T02:08:16.963Z,1.70
2022-12-29T02:10:47.072Z,1.80
2022-12-29T02:13:19.901Z,1.80
2022-12-29T02:16:05.302Z,1.80
2022-12-29T02:18:51.105Z,1.80
2022-12-29T02:22:03.651Z,1.80
2022-12-29T02:25:13.085Z,1.80
2022-12-29T02:28:11.867Z,1.70
2022-12-29T02:31:00.333Z,1.70
2022-12-29T02:33:51.743Z,1.70
2022-12-29T02:36:34.350Z,1.70
2022-12-29T02:39:15.222Z,1.70
2022-12-29T02:42:00.730Z,1.70
2022-12-29T02:44:44.267Z,1.70
2022-12-29T02:47:22.908Z,1.80
2022-12-29T02:50:01.820Z,1.80
2022-12-29T02:52:38.096Z,1.80
2022-12-29T02:55:07.966Z,1.80
2022-12-29T02:57:37.943Z,1.90
2022-12-29T03:00:12.411Z,1.80
2022-12-29T03:03:15.089Z,1.90
2022-12-29T03:06:13.054Z,1.90
2022-12-29T03:08:55.207Z,1.90
2022-12-29T03:11:52.333Z,2.00
2022-12-29T03:14:52.314Z,2.00
2022-12-29T03:17:30.510Z,2.00
2022-12-29T03:20:10.004Z,1.90
2022-12-29T03:22:47.174Z,2.00
2022-12-29T03:25:23.336Z,2.00
2022-12-29T03:27:57.811Z,2.00
2022-12-29T03:30:30.223Z,2.00
2022-12-29T03:33:04.795Z,2.10
2022-12-29T03:35:40.194Z,2.10
2022-12-29T03:38:17.247Z,2.20
2022-12-29T03:40:52.964Z,2.10
2022-12-29T03:43:22.633Z,2.10
2022-12-29T03:45:51.475Z,2.10
2022-12-29T03:48:20.382Z,2.20
2022-12-29T03:50:50.728Z,2.20
2022-12-29T03:53:19.795Z,2.10
2022-12-29T03:55:48.688Z,2.10
2022-12-29T03:58:17.533Z,2.10
2022-12-29T04:00:47.152Z,2.20
2022-12-29T04:03:15.930Z,2.20
2022-12-29T04:05:44.764Z,2.20
2022-12-29T04:08:15.042Z,2.30
2022-12-29T04:10:43.795Z,2.30
2022-12-29T04:13:12.534Z,2.30
2022-12-29T04:15:42.719Z,2.30
2022-12-29T04:18:11.501Z,2.20
2022-12-29T04:20:58.029Z,2.20
2022-12-29T04:23:28.715Z,2.20
2022-12-29T04:25:58.193Z,2.20
2022-12-29T04:28:26.975Z,2.20
2022-12-29T04:30:56.519Z,2.20
2022-12-29T04:33:25.625Z,2.30
2022-12-29T04:35:55.473Z,2.30
2022-12-29T04:38:25.720Z,2.40
2022-12-29T04:40:56.016Z,2.40
2022-12-29T04:43:24.832Z,2.30
2022-12-29T04:45:53.663Z,2.30
2022-12-29T04:48:22.838Z,2.30
2022-12-29T04:50:52.078Z,2.20
2022-12-29T04:53:21.133Z,2.30
2022-12-29T04:55:53.167Z,2.30
2022-12-29T04:58:24.060Z,2.40
2022-12-29T05:00:54.089Z,2.30
2022-12-29T05:03:22.949Z,2.30
2022-12-29T05:05:51.765Z,2.20
2022-12-29T05:08:26.139Z,2.20
2022-12-29T05:10:56.761Z,2.20
2022-12-29T05:13:27.039Z,2.20
2022-12-29T05:15:56.600Z,2.20
2022-12-29T05:18:25.460Z,2.30
2022-12-29T05:20:54.231Z,2.30
2022-12-29T05:23:23.181Z,2.40
2022-12-29T05:25:51.974Z,2.30
2022-12-29T05:28:20.770Z,2.30
2022-12-29T05:30:53.050Z,2.30
2022-12-29T05:33:22.663Z,2.30
2022-12-29T05:35:51.494Z,2.30
2022-12-29T05:38:20.354Z,2.30
2022-12-29T05:40:49.201Z,2.30
2022-12-29T05:43:17.921Z,2.30
2022-12-29T05:45:52.135Z,2.30
2022-12-29T05:48:20.965Z,2.40
2022-12-29T05:50:50.605Z,2.30
2022-12-29T05:53:20.198Z,2.40
2022-12-29T05:55:50.265Z,2.40
2022-12-29T05:58:19.950Z,2.30
2022-12-29T06:00:48.692Z,2.40
2022-12-29T06:03:19.042Z,2.40
2022-12-29T06:05:48.299Z,2.30
2022-12-29T06:08:17.059Z,2.40
2022-12-29T06:10:45.770Z,2.30
2022-12-29T06:13:14.531Z,2.30
2022-12-29T06:15:43.456Z,2.30
2022-12-29T06:18:19.322Z,2.30
2022-12-29T06:20:50.718Z,2.30
2022-12-29T06:23:19.655Z,2.30
2022-12-29T06:25:50.613Z,2.30
2022-12-29T06:28:19.418Z,2.30
2022-12-29T06:30:49.697Z,2.20
2022-12-29T06:33:18.835Z,2.20
2022-12-29T06:35:49.096Z,2.30
2022-12-29T06:38:18.018Z,2.30
2022-12-29T06:40:46.999Z,2.40
2022-12-29T06:43:15.804Z,2.40
2022-12-29T06:45:45.361Z,2.40
2022-12-29T06:48:14.348Z,2.30
2022-12-29T06:50:43.500Z,2.30
2022-12-29T06:53:13.708Z,2.30
2022-12-29T06:55:44.823Z,2.30
2022-12-29T06:58:13.550Z,2.40
2022-12-29T07:00:42.397Z,2.40
2022-12-29T07:03:11.363Z,2.50
2022-12-29T07:05:40.142Z,2.60
2022-12-29T07:08:09.090Z,2.50
2022-12-29T07:10:39.286Z,2.50
2022-12-29T07:13:08.867Z,2.50
2022-12-29T07:15:38.627Z,2.50
2022-12-29T07:18:07.624Z,2.50
2022-12-29T07:20:36.402Z,2.50
2022-12-29T07:23:05.378Z,2.50
2022-12-29T07:25:36.081Z,2.50
2022-12-29T07:28:06.825Z,2.50
2022-12-29T07:30:38.651Z,2.50
2022-12-29T07:33:07.444Z,2.60
2022-12-29T07:35:37.070Z,2.60
2022-12-29T07:38:05.866Z,2.60
2022-12-29T07:40:34.871Z,2.60
2022-12-29T07:43:03.647Z,2.70
2022-12-29T07:45:34.031Z,2.70
2022-12-29T07:48:03.600Z,2.70
2022-12-29T07:50:32.641Z,2.70
2022-12-29T07:53:01.357Z,2.70
2022-12-29T07:55:30.327Z,2.70
2022-12-29T07:57:59.425Z,2.70
2022-12-29T08:00:28.432Z,2.70
2022-12-29T08:02:58.619Z,2.70
2022-12-29T08:05:27.551Z,2.70
2022-12-29T08:07:56.309Z,2.70
2022-12-29T08:10:25.123Z,2.70
2022-12-29T08:12:54.616Z,2.80
2022-12-29T08:15:28.590Z,2.80
2022-12-29T08:18:03.044Z,2.80
2022-12-29T08:20:31.935Z,2.80
2022-12-29T08:23:00.779Z,2.90
2022-12-29T08:25:29.812Z,3.00
2022-12-29T08:27:58.765Z,3.00
2022-12-29T08:30:27.537Z,3.00
2022-12-29T08:32:56.343Z,3.00
2022-12-29T08:35:26.638Z,3.00
2022-12-29T08:37:55.426Z,3.00
2022-12-29T08:40:24.336Z,3.00
2022-12-29T08:42:53.112Z,2.90
2022-12-29T08:45:21.820Z,2.90
2022-12-29T08:47:50.649Z,2.90
2022-12-29T08:50:19.647Z,3.00
2022-12-29T08:52:49.845Z,3.00
2022-12-29T08:55:18.812Z,3.00
2022-12-29T08:57:47.733Z,3.00
2022-12-29T09:00:17.769Z,3.00
2022-12-29T09:02:46.846Z,3.00
2022-12-29T09:05:16.073Z,3.00
2022-12-29T09:07:44.991Z,3.10
2022-12-29T09:10:15.487Z,3.20
2022-12-29T09:12:44.269Z,3.20
2022-12-29T09:15:13.901Z,3.20
2022-12-29T09:17:48.618Z,3.30
2022-12-29T09:20:20.146Z,3.30
2022-12-29T09:22:50.337Z,3.30
2022-12-29T09:25:20.993Z,3.20
2022-12-29T09:27:51.211Z,3.20
2022-12-29T09:30:20.498Z,3.20
2022-12-29T09:32:54.860Z,3.30
2022-12-29T09:35:24.090Z,3.40
2022-12-29T09:37:52.859Z,3.40
2022-12-29T09:40:32.021Z,3.30
2022-12-29T09:43:21.559Z,3.30
2022-12-29T09:46:01.512Z,3.30
2022-12-29T09:48:36.183Z,3.30
2022-12-29T09:51:13.939Z,3.30
2022-12-29T09:53:47.664Z,3.30
2022-12-29T09:56:21.997Z,3.40
2022-12-29T09:59:00.262Z,3.40
2022-12-29T10:01:38.275Z,3.40
2022-12-29T10:04:08.297Z,3.30
2022-12-29T10:07:28.571Z,3.30
2022-12-29T10:09:54.537Z,3.40
2022-12-29T10:12:35.827Z,3.40
2022-12-29T10:15:15.958Z,3.40
2022-12-29T10:17:56.114Z,3.40
2022-12-29T10:20:35.779Z,3.40
2022-12-29T10:23:28.477Z,3.40
2022-12-29T10:25:59.784Z,3.50
2022-12-29T10:28:41.346Z,3.50
2022-12-29T10:31:21.117Z,3.60
2022-12-29T10:33:58.693Z,3.60
2022-12-29T10:36:36.105Z,3.50
2022-12-29T10:39:16.984Z,3.50
2022-12-29T10:41:53.759Z,3.50
2022-12-29T10:44:28.381Z,3.60
2022-12-29T10:47:05.744Z,3.50
2022-12-29T10:49:39.688Z,3.50
2022-12-29T10:52:10.936Z,3.50
2022-12-29T10:54:48.318Z,3.60
2022-12-29T10:57:28.567Z,3.60
2022-12-29T10:59:59.990Z,3.60
2022-12-29T11:03:04.676Z,3.60
2022-12-29T11:05:40.912Z,3.60
2022-12-29T11:08:16.305Z,3.70
2022-12-29T11:10:47.744Z,3.70
2022-12-29T11:13:19.125Z,3.80
2022-12-29T11:15:51.535Z,3.80
2022-12-29T11:18:24.543Z,3.70
2022-12-29T11:20:56.715Z,3.70
2022-12-29T11:23:32.081Z,3.70
2022-12-29T11:26:21.812Z,3.70
2022-12-29T11:29:25.725Z,3.70
2022-12-29T11:31:59.253Z,3.80
2022-12-29T11:34:33.898Z,3.70
2022-12-29T11:37:07.663Z,3.70
2022-12-29T11:39:43.275Z,3.70
2022-12-29T11:42:19.048Z,3.60
2022-12-29T11:44:51.728Z,3.50
2022-12-29T11:47:34.792Z,3.60
2022-12-29T11:50:09.296Z,3.70
2022-12-29T11:52:40.788Z,3.80
2022-12-29T11:55:23.106Z,3.90
2022-12-29T11:57:54.829Z,4.00
2022-12-29T12:00:27.083Z,4.00
2022-12-29T12:03:03.056Z,4.10
2022-12-29T12:05:42.817Z,4.00
2022-12-29T12:08:21.345Z,4.10
2022-12-29T12:10:59.611Z,4.00
2022-12-29T12:13:35.988Z,4.00
2022-12-29T12:16:12.012Z,4.00
2022-12-29T12:18:50.991Z,4.10
2022-12-29T12:21:30.201Z,4.20
2022-12-29T12:24:38.671Z,4.40
2022-12-29T12:27:17.545Z,4.50
2022-12-29T12:29:57.373Z,4.60
2022-12-29T12:32:43.834Z,4.60
2022-12-29T12:35:21.803Z,4.70
2022-12-29T12:38:15.119Z,4.90
2022-12-29T12:41:03.358Z,4.80
2022-12-29T12:43:48.355Z,4.90
2022-12-29T12:47:15.889Z,5.00
2022-12-29T12:50:40.899Z,5.10
2022-12-29T12:53:43.285Z,5.10
2022-12-29T12:56:46.796Z,5.00
2022-12-29T12:59:35.717Z,5.00
2022-12-29T13:02:19.919Z,4.90
2022-12-29T13:05:26.790Z,4.80
2022-12-29T13:08:24.941Z,4.80
2022-12-29T13:11:04.918Z,4.80
2022-12-29T13:14:08.692Z,4.80
2022-12-29T13:16:48.149Z,4.80
2022-12-29T13:19:28.676Z,4.80
2022-12-29T13:22:10.854Z,4.70
2022-12-29T13:25:01.276Z,4.70
2022-12-29T13:27:44.845Z,4.60
2022-12-29T13:30:34.591Z,4.70
2022-12-29T13:33:21.582Z,4.70
2022-12-29T13:36:03.148Z,4.70
2022-12-29T13:38:40.612Z,4.80
2022-12-29T13:41:16.420Z,4.90
2022-12-29T13:43:48.767Z,4.90
2022-12-29T13:46:28.156Z,5.00
2022-12-29T13:49:04.946Z,5.00
2022-12-29T13:51:35.802Z,4.90
2022-12-29T13:54:20.520Z,4.80
2022-12-29T13:57:02.916Z,4.80
2022-12-29T13:59:49.141Z,4.70
2022-12-29T14:02:34.365Z,4.70
2022-12-29T14:05:35.877Z,4.60
2022-12-29T14:08:08.570Z,4.60
2022-12-29T14:10:40.841Z,4.60
2022-12-29T14:13:16.735Z,4.50
2022-12-29T14:15:53.368Z,4.50
2022-12-29T14:18:26.643Z,4.50
2022-12-29T14:21:02.548Z,4.50
2022-12-29T14:23:41.284Z,4.50
2022-12-29T14:26:19.233Z,4.50
2022-12-29T14:28:50.002Z,4.50
2022-12-29T14:31:43.025Z,4.50
2022-12-29T14:34:31.600Z,4.50
2022-12-29T14:37:04.270Z,4.40
2022-12-29T14:39:40.170Z,4.40
2022-12-29T14:42:18.646Z,4.40
2022-12-29T14:44:54.214Z,4.40
2022-12-29T14:47:33.646Z,4.40
2022-12-29T14:50:10.146Z,4.40
2022-12-29T14:52:50.318Z,4.40
2022-12-29T14:55:41.686Z,4.40
2022-12-29T14:58:21.695Z,4.40
2022-12-29T15:00:51.810Z,4.30
2022-12-29T15:03:25.675Z,4.30
2022-12-29T15:05:56.761Z,4.30
2022-12-29T15:08:32.731Z,4.30
2022-12-29T15:11:08.575Z,4.30
2022-12-29T15:13:42.818Z,4.20
2022-12-29T15:16:26.816Z,4.20
2022-12-29T15:18:56.332Z,4.20
2022-12-29T15:21:30.072Z,4.20
2022-12-29T15:24:04.564Z,4.30
2022-12-29T15:26:42.287Z,4.30
2022-12-29T15:29:47.869Z,4.30
2022-12-29T15:32:25.986Z,4.20
2022-12-29T15:34:59.320Z,4.20
2022-12-29T15:37:30.567Z,4.30
2022-12-29T15:40:03.255Z,4.20
2022-12-29T15:43:30.317Z,4.20
2022-12-29T15:46:03.238Z,4.30
2022-12-29T15:48:34.656Z,4.30
2022-12-29T15:51:03.892Z,4.30
2022-12-29T15:53:35.197Z,4.30
2022-12-29T15:56:12.483Z,4.30
2022-12-29T15:59:18.158Z,4.30
2022-12-29T16:01:47.397Z,4.30
2022-12-29T16:04:17.698Z,4.30
2022-12-29T16:06:58.435Z,4.30
2022-12-29T16:09:36.090Z,4.30
2022-12-29T16:12:16.847Z,4.30
2022-12-29T16:14:49.706Z,4.30
2022-12-29T16:17:24.407Z,4.30
2022-12-29T16:19:57.336Z,4.30
2022-12-29T16:22:33.148Z,4.30
2022-12-29T16:25:08.753Z,4.30
2022-12-29T16:27:43.423Z,4.30
2022-12-29T16:30:26.502Z,4.30
2022-12-29T16:33:02.726Z,4.30
2022-12-29T16:35:42.021Z,4.30
2022-12-29T16:38:17.583Z,4.30
2022-12-29T16:40:56.992Z,4.20
2022-12-29T16:43:32.382Z,4.30
2022-12-29T16:46:27.782Z,4.30
2022-12-29T16:48:59.089Z,4.30
2022-12-29T16:51:37.142Z,4.30
2022-12-29T16:54:08.443Z,4.30
2022-12-29T16:56:39.914Z,4.30
2022-12-29T16:59:30.371Z,4.30
2022-12-29T17:02:02.305Z,4.30
2022-12-29T17:04:32.553Z,4.30
2022-12-29T17:07:01.480Z,4.30
2022-12-29T17:09:31.701Z,4.50
2022-12-29T17:12:10.665Z,4.60
2022-12-29T17:14:47.428Z,4.50
2022-12-29T17:17:21.129Z,4.50
2022-12-29T17:19:54.333Z,4.50
2022-12-29T17:22:26.908Z,4.40
2022-12-29T17:24:57.547Z,4.40
2022-12-29T17:27:32.321Z,4.40
2022-12-29T17:30:07.120Z,4.50
2022-12-29T17:32:36.041Z,4.60
2022-12-29T17:35:05.472Z,4.60
2022-12-29T17:37:37.938Z,4.60
2022-12-29T17:40:16.680Z,4.60
2022-12-29T17:42:48.887Z,4.60
2022-12-29T17:45:24.223Z,4.60
2022-12-29T17:47:53.401Z,4.60
2022-12-29T17:50:26.322Z,4.60
2022-12-29T17:53:01.108Z,4.50
2022-12-29T17:55:37.701Z,4.40
2022-12-29T17:58:19.707Z,4.30
2022-12-29T18:00:55.332Z,4.30
2022-12-29T18:03:33.572Z,4.30
2022-12-29T18:06:04.675Z,4.30
2022-12-29T18:08:34.779Z,4.20
2022-12-29T18:11:04.335Z,4.20
2022-12-29T18:13:44.012Z,4.20
2022-12-29T18:16:17.070Z,4.10
2022-12-29T18:18:46.605Z,4.10
2022-12-29T18:21:21.984Z,4.10
2022-12-29T18:23:51.583Z,4.10
2022-12-29T18:26:27.982Z,4.00
2022-12-29T18:28:57.703Z,4.00
2022-12-29T18:31:30.096Z,4.00
2022-12-29T18:34:01.542Z,4.00
2022-12-29T18:36:31.058Z,3.90
2022-12-29T18:39:00.017Z,3.90
2022-12-29T18:41:30.922Z,3.90
2022-12-29T18:44:00.366Z,3.90
2022-12-29T18:46:30.642Z,3.90
2022-12-29T18:48:59.572Z,3.90
2022-12-29T18:51:28.501Z,3.90
2022-12-29T18:54:03.583Z,3.90
2022-12-29T18:56:36.359Z,3.90
2022-12-29T18:59:05.417Z,3.80
2022-12-29T19:01:35.941Z,3.80
2022-12-29T19:04:07.974Z,3.70
2022-12-29T19:06:49.332Z,3.70
2022-12-29T19:09:18.949Z,3.70
2022-12-29T19:11:48.022Z,3.70
2022-12-29T19:14:18.573Z,3.70
2022-12-29T19:16:49.612Z,3.70
2022-12-29T19:19:19.035Z,3.80
2022-12-29T19:21:49.516Z,3.80
2022-12-29T19:24:18.422Z,3.80
2022-12-29T19:26:47.185Z,3.70
2022-12-29T19:29:16.999Z,3.70
2022-12-29T19:31:47.595Z,3.70
2022-12-29T19:34:18.621Z,3.70
2022-12-29T19:36:47.974Z,3.70
2022-12-29T19:39:57.350Z,3.60
2022-12-29T19:42:31.905Z,3.60
2022-12-29T19:45:06.581Z,3.60
2022-12-29T19:47:37.273Z,3.60
2022-12-29T19:50:09.769Z,3.60
2022-12-29T19:53:04.842Z,3.60
2022-12-29T19:55:37.212Z,3.60
2022-12-29T19:58:10.188Z,3.60
2022-12-29T20:00:41.240Z,3.60
2022-12-29T20:03:12.097Z,3.60
2022-12-29T20:05:42.080Z,3.60
2022-12-29T20:08:11.105Z,3.60
2022-12-29T20:10:41.884Z,3.60
2022-12-29T20:13:10.904Z,3.60
2022-12-29T20:15:44.233Z,3.60
2022-12-29T20:18:15.377Z,3.60
2022-12-29T20:20:44.871Z,3.60
2022-12-29T20:23:14.225Z,3.60
2022-12-29T20:25:53.855Z,3.60
2022-12-29T20:28:23.593Z,3.60
2022-12-29T20:31:06.567Z,3.70
2022-12-29T20:33:37.730Z,3.80
2022-12-29T20:36:10.288Z,3.90
2022-12-29T20:38:40.833Z,4.00
2022-12-29T20:41:23.568Z,4.00
2022-12-29T20:43:56.280Z,3.90
2022-12-29T20:46:41.019Z,3.90
2022-12-29T20:49:13.931Z,3.90
2022-12-29T20:52:10.926Z,3.90
2022-12-29T20:54:48.186Z,3.90
2022-12-29T20:57:17.883Z,3.80
2022-12-29T20:59:47.062Z,3.80
2022-12-29T21:02:22.381Z,3.70
2022-12-29T21:07:44.816Z,3.80
2022-12-29T21:10:13.733Z,3.80
2022-12-29T21:12:52.093Z,3.60
2022-12-29T21:15:25.487Z,3.50
2022-12-29T21:17:55.585Z,3.50
2022-12-29T21:20:32.168Z,3.50
2022-12-29T21:23:13.818Z,3.50
2022-12-29T21:25:48.145Z,3.50
2022-12-29T21:28:17.401Z,3.50
2022-12-29T21:30:49.196Z,3.40
2022-12-29T21:33:25.947Z,3.40
2022-12-29T21:36:16.813Z,3.40
2022-12-29T21:38:50.035Z,3.40
2022-12-29T21:41:19.814Z,3.30
2022-12-29T21:44:10.013Z,3.30
2022-12-29T21:46:41.365Z,3.30
2022-12-29T21:49:10.583Z,3.30
2022-12-29T21:51:54.116Z,3.40
2022-12-29T21:54:43.852Z,3.40
2022-12-29T21:57:34.953Z,3.40
2022-12-29T22:00:23.008Z,3.30
2022-12-29T22:03:12.899Z,3.30
2022-12-29T22:06:05.148Z,3.30
2022-12-29T22:08:52.524Z,3.30
2022-12-29T22:11:38.530Z,3.30
2022-12-29T22:14:07.412Z,3.30
2022-12-29T22:16:36.461Z,3.30
2022-12-29T22:19:05.664Z,3.30
2022-12-29T22:21:34.661Z,3.20
2022-12-29T22:24:05.102Z,3.20
2022-12-29T22:26:34.011Z,3.10
2022-12-29T22:29:04.244Z,3.20
2022-12-29T22:31:34.043Z,3.20
2022-12-29T22:34:13.361Z,3.10
2022-12-29T22:36:44.678Z,3.10
2022-12-29T22:39:18.892Z,3.10
2022-12-29T22:41:54.252Z,3.10
2022-12-29T22:44:23.258Z,3.00
2022-12-29T22:46:55.138Z,3.00
2022-12-29T22:49:25.290Z,3.00
2022-12-29T22:51:56.207Z,3.00
2022-12-29T22:54:34.271Z,3.00
2022-12-29T22:57:05.115Z,3.00
2022-12-29T22:59:34.865Z,3.00
2022-12-29T23:02:04.112Z,3.00
2022-12-29T23:05:02.473Z,3.00
2022-12-29T23:07:26.696Z,3.00
2022-12-29T23:09:57.080Z,3.00
2022-12-29T23:12:32.886Z,2.90
2022-12-29T23:15:04.426Z,2.90
2022-12-29T23:17:33.340Z,2.90
2022-12-29T23:20:02.209Z,2.90
2022-12-29T23:22:41.071Z,2.90
2022-12-29T23:25:19.226Z,2.90
2022-12-29T23:27:50.314Z,2.90
2022-12-29T23:30:25.304Z,2.90
2022-12-29T23:33:03.930Z,2.90
2022-12-29T23:35:38.007Z,3.00
2022-12-29T23:38:07.747Z,3.00
2022-12-29T23:40:38.019Z,3.00
2022-12-29T23:43:15.738Z,3.00
2022-12-29T23:45:49.060Z,3.00
2022-12-29T23:48:25.324Z,3.00
2022-12-29T23:50:58.943Z,2.90
2022-12-29T23:53:27.844Z,2.90
2022-12-29T23:55:58.438Z,3.00
2022-12-29T23:58:27.648Z,2.90
